Wonnie, Kentucky
Current Conditions -  °F | °C
As of 10:53 PM on Friday 19 Dec 2014 (Local Time) from KJKL Reporting Station
Clear Clear  
Wind Chill: 27°   Ceiling: Unl
Heat Index: 27°   Visibility: 9mi
Dew Point: 21°   Wind: 3mph
Humidity: 78%   Direction: NA
Pressure: 30.21"   Gusts: NA
Location:  37.7261°N, 83.0786°W
Report Text: KJKL 200353Z AUTO VRB03KT 9SM CLR M03/M06 A3021 RMK AO2 SLP243 T10281061
Loading
Personal Weather Stations






























Interactive Weather Map New forecast layout! Learn more

10-Day Weather Forecast

Advertisements
Track Severe Weather on mobile